createdAt,value
2023-04-15T00:04:18.912Z,9.36
2023-04-15T00:09:16.648Z,9.21
2023-04-15T00:14:08.369Z,9.14
2023-04-15T00:19:03.523Z,9.15
2023-04-15T00:24:02.222Z,9.22
2023-04-15T00:28:55.925Z,9.05
2023-04-15T00:33:50.165Z,9.14
2023-04-15T00:38:43.579Z,9.05
2023-04-15T00:43:34.208Z,8.97
2023-04-15T00:48:28.613Z,8.99
2023-04-15T00:53:20.448Z,8.93
2023-04-15T00:58:13.028Z,8.85
2023-04-15T01:03:06.848Z,8.79
2023-04-15T01:08:04.615Z,8.76
2023-04-15T01:12:55.535Z,8.70
2023-04-15T01:17:48.113Z,8.60
2023-04-15T01:22:39.966Z,8.55
2023-04-15T01:27:34.863Z,8.50
2023-04-15T01:32:28.634Z,8.50
2023-04-15T01:37:23.799Z,8.39
2023-04-15T01:42:15.904Z,8.31
2023-04-15T01:47:10.389Z,8.24
2023-04-15T01:52:02.327Z,8.26
2023-04-15T01:56:56.766Z,8.17
2023-04-15T02:01:49.325Z,8.16
2023-04-15T02:06:42.936Z,8.08
2023-04-15T02:11:45.576Z,8.02
2023-04-15T02:16:41.863Z,7.98
2023-04-15T02:21:36.195Z,7.96
2023-04-15T02:26:32.647Z,7.91
2023-04-15T02:31:23.598Z,7.84
2023-04-15T02:36:18.669Z,7.80
2023-04-15T02:41:11.724Z,7.73
2023-04-15T02:46:15.072Z,7.59
2023-04-15T02:51:16.477Z,7.48
2023-04-15T02:56:08.847Z,7.50
2023-04-15T03:01:08.097Z,7.45
2023-04-15T03:06:08.123Z,7.40
2023-04-15T03:11:03.116Z,7.41
2023-04-15T03:15:58.279Z,7.43
2023-04-15T03:20:54.270Z,7.40
2023-04-15T03:25:50.970Z,7.46
2023-04-15T03:30:46.270Z,7.42
2023-04-15T03:35:41.495Z,7.46
2023-04-15T03:40:38.696Z,7.37
2023-04-15T03:45:46.758Z,7.34
2023-04-15T03:50:40.247Z,7.24
2023-04-15T03:55:35.194Z,7.15
2023-04-15T04:00:31.035Z,7.07
2023-04-15T04:05:26.222Z,7.01
2023-04-15T04:10:20.068Z,6.97
2023-04-15T04:15:15.407Z,6.90
2023-04-15T04:20:06.594Z,6.72
2023-04-15T04:25:15.825Z,6.60
2023-04-15T04:30:11.075Z,6.53
2023-04-15T04:35:04.084Z,6.28
2023-04-15T04:39:58.769Z,6.20
2023-04-15T04:45:00.788Z,6.33
2023-04-15T04:49:55.419Z,6.26
2023-04-15T04:54:56.170Z,6.17
2023-04-15T04:59:48.111Z,6.12
2023-04-15T05:04:50.470Z,6.16
2023-04-15T05:09:55.172Z,6.16
2023-04-15T05:14:56.240Z,6.08
2023-04-15T05:19:55.258Z,6.04
2023-04-15T05:24:55.086Z,6.00
2023-04-15T05:29:45.666Z,5.98
2023-04-15T05:34:46.630Z,6.00
2023-04-15T05:39:40.508Z,6.04
2023-04-15T05:44:48.876Z,6.11
2023-04-15T05:49:49.446Z,6.19
2023-04-15T05:54:59.180Z,6.16
2023-04-15T05:59:55.803Z,6.24
2023-04-15T06:04:57.930Z,6.35
2023-04-15T06:10:08.969Z,6.29
2023-04-15T06:15:01.729Z,6.29
2023-04-15T06:19:59.591Z,6.34
2023-04-15T06:24:51.522Z,6.24
2023-04-15T06:29:47.372Z,6.24
2023-04-15T06:34:47.788Z,6.36
2023-04-15T06:39:47.395Z,6.38
2023-04-15T06:44:49.654Z,6.46
2023-04-15T06:49:54.022Z,6.60
2023-04-15T06:54:49.113Z,6.67
2023-04-15T06:59:53.792Z,6.83
2023-04-15T07:04:48.559Z,6.96
2023-04-15T07:09:59.858Z,6.95
2023-04-15T07:14:51.964Z,7.08
2023-04-15T07:19:44.298Z,7.24
2023-04-15T07:24:41.045Z,7.39
2023-04-15T07:29:31.964Z,7.59
2023-04-15T07:34:23.812Z,7.70
2023-04-15T07:39:14.423Z,7.75
2023-04-15T07:44:09.787Z,7.88
2023-04-15T07:49:05.414Z,7.94
2023-04-15T07:54:00.935Z,8.11
2023-04-15T07:58:51.290Z,8.10
2023-04-15T08:03:51.107Z,8.05
2023-04-15T08:08:44.135Z,7.69
2023-04-15T08:13:37.667Z,8.24
2023-04-15T08:18:34.038Z,8.81
2023-04-15T08:23:31.074Z,9.61
2023-04-15T08:28:28.708Z,10.52
2023-04-15T08:33:27.797Z,11.35
2023-04-15T08:38:20.201Z,12.09
2023-04-15T08:43:27.523Z,12.56
2023-04-15T08:48:22.873Z,13.03
2023-04-15T08:53:19.660Z,13.71
2023-04-15T08:58:11.879Z,13.63
2023-04-15T09:03:09.521Z,13.69
2023-04-15T09:08:11.244Z,13.63
2023-04-15T09:13:03.754Z,13.54
2023-04-15T09:17:57.799Z,13.73
2023-04-15T09:22:56.384Z,13.86
2023-04-15T09:27:52.025Z,13.82
2023-04-15T09:32:53.390Z,14.22
2023-04-15T09:37:50.613Z,14.19
2023-04-15T09:42:57.821Z,14.48
2023-04-15T09:47:48.499Z,14.74
2023-04-15T09:52:47.589Z,14.81
2023-04-15T09:57:44.766Z,14.94
2023-04-15T10:02:37.742Z,15.01
2023-04-15T10:07:30.374Z,14.49
2023-04-15T10:12:20.961Z,14.95
2023-04-15T10:17:35.735Z,14.78
2023-04-15T10:22:41.727Z,14.66
2023-04-15T10:27:43.425Z,14.70
2023-04-15T10:32:45.088Z,14.96
2023-04-15T10:38:05.420Z,14.84
2023-04-15T10:43:14.630Z,15.03
2023-04-15T10:48:13.408Z,14.71
2023-04-15T10:53:15.135Z,14.57
2023-04-15T10:58:10.400Z,14.26
2023-04-15T11:03:05.883Z,14.53
2023-04-15T11:08:03.654Z,14.33
2023-04-15T11:13:02.993Z,14.58
2023-04-15T11:18:01.597Z,14.31
2023-04-15T11:23:14.640Z,14.56
2023-04-15T11:28:21.143Z,14.44
2023-04-15T11:33:20.486Z,14.86
2023-04-15T11:38:18.216Z,14.56
2023-04-15T11:43:43.120Z,14.06
2023-04-15T11:49:15.496Z,13.19
2023-04-15T11:54:39.494Z,13.47
2023-04-15T11:59:39.006Z,13.33
2023-04-15T12:04:43.944Z,13.71
2023-04-15T12:09:41.691Z,13.52
2023-04-15T12:14:41.813Z,13.48
2023-04-15T12:19:35.339Z,13.67
2023-04-15T12:24:33.926Z,13.69
2023-04-15T12:29:27.677Z,13.77
2023-04-15T12:34:23.150Z,13.61
2023-04-15T12:39:25.533Z,13.58
2023-04-15T12:44:37.590Z,13.66
2023-04-15T12:49:32.463Z,13.69
2023-04-15T12:54:51.827Z,13.96
2023-04-15T12:59:49.644Z,14.11
2023-04-15T13:04:44.163Z,14.15
2023-04-15T13:09:38.556Z,14.11
2023-04-15T13:14:31.728Z,13.96
2023-04-15T13:19:28.457Z,13.88
2023-04-15T13:24:25.071Z,13.90
2023-04-15T13:29:21.827Z,13.60
2023-04-15T13:34:15.625Z,13.63
2023-04-15T13:39:16.997Z,13.95
2023-04-15T13:44:12.987Z,14.13
2023-04-15T13:49:04.122Z,14.09
2023-04-15T13:53:55.787Z,13.74
2023-04-15T13:58:49.761Z,13.63
2023-04-15T14:03:43.766Z,13.52
2023-04-15T14:08:38.629Z,13.55
2023-04-15T14:13:50.462Z,13.35
2023-04-15T14:19:00.556Z,13.81
2023-04-15T14:23:56.832Z,14.17
2023-04-15T14:28:52.227Z,13.78
2023-04-15T14:33:49.168Z,13.80
2023-04-15T14:38:48.522Z,13.68
2023-04-15T14:43:48.728Z,13.87
2023-04-15T14:48:42.950Z,13.57
2023-04-15T14:53:43.646Z,13.59
2023-04-15T14:58:45.659Z,13.64
2023-04-15T15:03:43.330Z,13.42
2023-04-15T15:08:50.770Z,13.60
2023-04-15T15:13:47.038Z,13.40
2023-04-15T15:18:37.419Z,12.96
2023-04-15T15:23:31.159Z,13.19
2023-04-15T15:28:30.613Z,12.96
2023-04-15T15:33:23.677Z,13.17
2023-04-15T15:38:15.940Z,13.06
2023-04-15T15:43:08.955Z,12.88
2023-04-15T15:48:01.925Z,12.60
2023-04-15T15:52:53.914Z,12.49
2023-04-15T15:57:44.182Z,12.57
2023-04-15T16:03:04.162Z,12.76
2023-04-15T16:07:53.049Z,12.98
2023-04-15T16:12:45.277Z,12.84
2023-04-15T16:17:39.543Z,12.65
2023-04-15T16:22:31.531Z,12.62
2023-04-15T16:27:27.351Z,12.33
2023-04-15T16:32:30.449Z,12.70
2023-04-15T16:37:20.954Z,12.40
2023-04-15T16:42:13.820Z,12.26
2023-04-15T16:47:10.356Z,12.10
2023-04-15T16:52:09.329Z,11.68
2023-04-15T16:57:06.997Z,11.50
2023-04-15T17:01:58.050Z,11.61
2023-04-15T17:06:53.006Z,11.42
2023-04-15T17:11:55.032Z,11.27
2023-04-15T17:16:50.630Z,11.09
2023-04-15T17:21:46.137Z,11.13
2023-04-15T17:26:40.805Z,11.22
2023-04-15T17:31:39.876Z,11.10
2023-04-15T17:36:37.023Z,11.02
2023-04-15T17:41:47.628Z,10.97
2023-04-15T17:46:42.294Z,10.94
2023-04-15T17:51:37.300Z,10.77
2023-04-15T17:56:32.461Z,10.50
2023-04-15T18:01:25.561Z,10.47
2023-04-15T18:06:17.358Z,10.24
2023-04-15T18:11:11.265Z,9.85
2023-04-15T18:16:12.830Z,9.72
2023-04-15T18:21:17.700Z,9.27
2023-04-15T18:26:12.340Z,9.11
2023-04-15T18:31:06.434Z,9.02
2023-04-15T18:36:07.548Z,8.80
2023-04-15T18:41:07.693Z,8.72
2023-04-15T18:46:06.598Z,8.74
2023-04-15T18:51:02.311Z,8.57
2023-04-15T18:56:00.160Z,8.50
2023-04-15T19:01:12.733Z,8.37
2023-04-15T19:06:17.297Z,8.26
2023-04-15T19:11:10.377Z,8.11
2023-04-15T19:16:05.791Z,8.13
2023-04-15T19:21:07.715Z,8.02
2023-04-15T19:26:03.854Z,7.97
2023-04-15T19:30:59.285Z,7.97
2023-04-15T19:35:57.603Z,7.95
2023-04-15T19:40:48.495Z,7.99
2023-04-15T19:45:40.585Z,7.97
2023-04-15T19:50:30.836Z,7.84
2023-04-15T19:55:25.212Z,7.76
2023-04-15T20:00:17.159Z,7.72
2023-04-15T20:05:11.868Z,7.74
2023-04-15T20:10:12.567Z,7.67
2023-04-15T20:15:07.939Z,7.63
2023-04-15T20:19:58.039Z,7.54
2023-04-15T20:24:50.675Z,7.59
2023-04-15T20:29:48.152Z,7.49
2023-04-15T20:34:45.535Z,7.49
2023-04-15T20:39:39.322Z,7.47
2023-04-15T20:44:33.605Z,7.50
2023-04-15T20:49:29.991Z,7.48
2023-04-15T20:54:25.934Z,7.41
2023-04-15T20:59:17.070Z,7.38
2023-04-15T21:04:15.359Z,7.47
2023-04-15T21:09:15.389Z,7.41
2023-04-15T21:14:12.021Z,7.36
2023-04-15T21:19:06.573Z,7.30
2023-04-15T21:23:58.627Z,7.36
2023-04-15T21:28:49.291Z,7.44
2023-04-15T21:33:45.528Z,7.48
2023-04-15T21:38:44.782Z,7.54
2023-04-15T21:43:43.213Z,7.53
2023-04-15T21:48:34.663Z,7.49
2023-04-15T21:53:28.533Z,7.52
2023-04-15T21:58:21.749Z,7.64
2023-04-15T22:03:12.680Z,7.65
2023-04-15T22:08:06.468Z,7.69
2023-04-15T22:13:07.659Z,7.69
2023-04-15T22:18:08.855Z,7.76
2023-04-15T22:23:00.682Z,7.78
2023-04-15T22:27:59.831Z,7.65
2023-04-15T22:32:54.428Z,7.73
2023-04-15T22:37:51.292Z,7.68
2023-04-15T22:42:44.924Z,7.68
2023-04-15T22:47:43.705Z,7.67
2023-04-15T22:52:38.665Z,7.80
2023-04-15T22:57:33.580Z,7.83
2023-04-15T23:02:27.704Z,7.78
2023-04-15T23:07:18.340Z,7.78
2023-04-15T23:12:13.763Z,7.71
2023-04-15T23:17:07.451Z,7.82
2023-04-15T23:22:07.008Z,7.81
2023-04-15T23:27:01.851Z,7.76
2023-04-15T23:31:59.546Z,7.67
2023-04-15T23:37:02.901Z,7.84
2023-04-15T23:42:05.198Z,7.80
2023-04-15T23:47:07.043Z,7.58
2023-04-15T23:51:58.607Z,7.61
2023-04-15T23:56:52.783Z,7.63
